Post, TX

11:02 PM CDT en Septiembre 14, 2014 (GMT -0500)
WT_Meso Post 1S | Change Station
CLOSE
Current Station
Estación meteorológica personal
Location: Post, TX
Altura: 2598 ft
Estaciones meteorológicas cercanas

Alt 2598 ft 33.20 °N, 101.37 °W | Updated 37 minutes ago

Nublado
Nublado
67 ° F
Sensación térmica 67 ° F
N
4
Viento Variable Viento desde Sur
Gusts 5.0 mph

Hoy
Alta -- | Baja -- ° F
--% Posibilidad de precipitaciones
Ayer
Alta -- | Baja -- ° F
Precip. -- pul
7:28 AM 7:53 PM
Gibosa menguante, 59% visible
Presión 30.10 pul
Visibilidad 9.0 Millas
Nubes Muy nublado 12000 ft
Nublado 15000 ft
Punto de rocío 61 ° F
Humedad 82%
Precipitaciones -999.00 pul
Espesor de la nieve No disponible.
UV 0 de una escala de 12
Polen 8.10 de una escala de 12
Calidad del aire No disponible.
Flu Activity No disponible.
METAR KLBB 150353Z 19008KT 9SM BKN120 OVC150 17/16 A3020 RMK AO2 SLP193 T01670156

More Conditions Fewer Conditions

Presión 30.10 pul
Visibilidad 9.0 Millas
Nubes Muy nublado 12000 ft
Nublado 15000 ft
Punto de rocío 61 ° F
Humedad 82%
Precipitaciones -999.00 pul
Espesor de la nieve No disponible.
UV 0 de una escala de 12
Polen 8.10 de una escala de 12
Calidad del aire No disponible.
Flu Activity No disponible.
METAR KLBB 150353Z 19008KT 9SM BKN120 OVC150 17/16 A3020 RMK AO2 SLP193 T01670156

More Conditions Fewer Conditions

Nowcast | as of 10:00 PM CDT on September 14, 2014

Through midnight... scattered rain showers will continue to affect portions of the southern Texas Panhandle....northern South Plains...and rolling plains. Accumulations will be quite light as the activity moves northeast near 25 mph. Across the remainder of the South Plains...there is the potential of fog development especially south and southwest of Lubbock. If fog is encountered...slow down and use low beam headlights.

×

10-Day Weather Forecast

Almanac

Astronomía

Sep. 14, 2014 Salida Puesta
Hora real 7:28 AM CDT 7:53 PM CDT
Crepúsculo civil 7:03 AM CDT 8:17 PM CDT
Crepúsculo náutico 6:34 AM CDT 8:47 PM CDT
Crepúsculo astronómico 6:04 AM CDT 9:16 PM CDT
Luna Sin salida de luna 1:18 PM CDT (9/14)
Horas de luz 13h 14m
Horas de luz
12h 24m
Tomorrow will be 2m 2s shorter.
Gibosa menguante, 59% of the Moon is Illuminated
Sep 15
Gibosa menguante
Sep 15
Cuarto menguante
Sep 24
Nueva
Oct 1
Cuarto creciente
Oct 8
Luna llena

Extremos de hoy

Máximos del estado Bajos del estado

Community

WunderPhotos

Upload Photos

1,753,398 ¡fotos cargadas!

Nearby

Grosos de nieve

Estación Profundido Altura
No tenemos constancia de nieve nueva.

Actividad de terremotos

Ciudad Distance Mag. Tiempo y dato
Snyder, Texas 37 Millas 3.2 4:19 AM CDT
2014-09-14
Magnitud mínima muestra es 2,5.

Temperaturas de aguas costeras

Lugar Temperatura
Sin partes meteorológicos de las estaciones

Estaciones meteorológicas cercanas